createdAt,value
2019-02-04T00:03:08.808Z,20.21
2019-02-04T00:08:12.616Z,20.26
2019-02-04T00:13:16.768Z,20.26
2019-02-04T00:18:20.534Z,20.25
2019-02-04T00:23:24.312Z,20.28
2019-02-04T00:28:28.087Z,20.25
2019-02-04T00:33:31.860Z,20.25
2019-02-04T00:38:35.634Z,20.19
2019-02-04T00:43:39.410Z,20.24
2019-02-04T00:48:43.185Z,20.18
2019-02-04T00:53:46.968Z,20.22
2019-02-04T00:58:50.732Z,20.22
2019-02-04T01:03:54.500Z,20.15
2019-02-04T01:08:58.261Z,20.14
2019-02-04T01:14:02.431Z,20.14
2019-02-04T01:19:06.200Z,20.13
2019-02-04T01:24:09.990Z,20.11
2019-02-04T01:29:13.761Z,20.10
2019-02-04T01:34:17.549Z,20.06
2019-02-04T01:39:21.384Z,20.06
2019-02-04T01:44:25.227Z,20.07
2019-02-04T01:49:29.367Z,20.07
2019-02-04T01:54:33.157Z,20.03
2019-02-04T01:59:36.982Z,20.03
2019-02-04T02:04:40.771Z,20.01
2019-02-04T02:09:44.553Z,20.02
2019-02-04T02:14:48.329Z,20.01
2019-02-04T02:19:52.122Z,20.01
2019-02-04T02:24:56.277Z,19.98
2019-02-04T02:30:00.098Z,19.95
2019-02-04T02:35:04.586Z,19.93
2019-02-04T02:40:12.490Z,19.91
2019-02-04T02:45:16.262Z,19.91
2019-02-04T02:50:20.033Z,19.89
2019-02-04T02:55:23.821Z,19.87
2019-02-04T03:00:28.612Z,19.86
2019-02-04T03:05:32.376Z,19.86
2019-02-04T03:10:36.135Z,19.74
2019-02-04T03:15:39.942Z,19.74
2019-02-04T03:20:43.726Z,19.81
2019-02-04T03:25:47.490Z,19.78
2019-02-04T03:30:51.280Z,19.76
2019-02-04T03:35:55.067Z,19.76
2019-02-04T03:40:58.846Z,19.65
2019-02-04T03:46:02.615Z,19.72
2019-02-04T03:51:06.385Z,19.71
2019-02-04T03:56:10.151Z,19.71
2019-02-04T04:01:13.927Z,19.71
2019-02-04T04:06:17.739Z,19.68
2019-02-04T04:11:21.499Z,19.66
2019-02-04T04:16:25.283Z,19.66
2019-02-04T04:21:29.060Z,19.65
2019-02-04T04:26:32.845Z,19.67
2019-02-04T04:31:36.623Z,19.63
2019-02-04T04:36:40.784Z,19.63
2019-02-04T04:41:44.566Z,19.64
2019-02-04T04:46:48.323Z,19.66
2019-02-04T04:51:52.107Z,19.64
2019-02-04T04:56:55.875Z,19.55
2019-02-04T05:01:59.640Z,19.53
2019-02-04T05:07:03.416Z,19.50
2019-02-04T05:12:07.183Z,19.49
2019-02-04T05:17:10.982Z,19.55
2019-02-04T05:22:14.746Z,19.53
2019-02-04T05:27:18.527Z,19.52
2019-02-04T05:32:22.285Z,19.49
2019-02-04T05:37:26.068Z,19.49
2019-02-04T05:42:29.833Z,19.48
2019-02-04T05:47:33.616Z,19.48
2019-02-04T05:52:37.383Z,19.45
2019-02-04T05:57:41.159Z,19.45
2019-02-04T06:02:44.933Z,19.43
2019-02-04T06:07:48.699Z,19.43
2019-02-04T06:12:52.852Z,19.41
2019-02-04T06:17:56.615Z,19.39
2019-02-04T06:23:00.405Z,19.40
2019-02-04T06:28:04.204Z,19.40
2019-02-04T06:33:08.002Z,19.40
2019-02-04T06:38:11.798Z,19.35
2019-02-04T06:43:15.575Z,19.36
2019-02-04T06:48:19.341Z,19.36
2019-02-04T06:53:23.111Z,19.32
2019-02-04T06:58:26.873Z,19.32
2019-02-04T07:03:30.641Z,19.31
2019-02-04T07:08:34.408Z,19.28
2019-02-04T07:13:42.145Z,19.28
2019-02-04T07:18:44.044Z,19.27
2019-02-04T07:23:47.866Z,19.27
2019-02-04T07:28:51.647Z,19.26
2019-02-04T07:33:55.488Z,19.28
2019-02-04T07:38:59.259Z,19.29
2019-02-04T07:44:03.058Z,19.29
2019-02-04T07:49:06.839Z,19.27
2019-02-04T07:54:10.601Z,19.28
2019-02-04T07:59:14.370Z,19.28
2019-02-04T08:04:18.232Z,13.94
2019-02-04T08:09:22.113Z,11.04
2019-02-04T08:14:26.282Z,13.11
2019-02-04T08:19:30.095Z,13.11
2019-02-04T08:24:34.261Z,18.71
2019-02-04T08:29:38.044Z,18.71
2019-02-04T08:34:41.884Z,19.87
2019-02-04T08:39:45.959Z,20.09
2019-02-04T08:44:49.838Z,20.19
2019-02-04T08:49:58.575Z,20.17
2019-02-04T08:54:59.264Z,20.14
2019-02-04T09:00:03.220Z,20.06
2019-02-04T09:05:08.090Z,20.06
2019-02-04T09:10:15.140Z,20.02
2019-02-04T09:15:18.990Z,20.02
2019-02-04T09:20:22.999Z,19.96
2019-02-04T09:25:26.854Z,19.98
2019-02-04T09:30:30.684Z,20.33
2019-02-04T09:35:34.500Z,20.46
2019-02-04T09:40:40.803Z,20.46
2019-02-04T09:45:45.297Z,20.25
2019-02-04T09:50:51.839Z,20.25
2019-02-04T09:55:57.120Z,20.12
2019-02-04T10:01:04.140Z,20.12
2019-02-04T10:06:06.706Z,15.43
2019-02-04T10:11:10.533Z,15.43
2019-02-04T10:16:14.372Z,19.41
2019-02-04T10:21:18.250Z,19.50
2019-02-04T10:26:22.035Z,19.60
2019-02-04T10:31:25.977Z,19.65
2019-02-04T10:36:29.795Z,19.55
2019-02-04T10:41:35.040Z,19.53
2019-02-04T10:46:38.996Z,19.53
2019-02-04T10:51:42.860Z,19.53
2019-02-04T10:56:46.753Z,19.56
2019-02-04T11:01:50.619Z,19.55
2019-02-04T11:06:54.446Z,19.57
2019-02-04T11:11:58.391Z,19.59
2019-02-04T11:17:02.172Z,19.51
2019-02-04T11:22:06.005Z,19.62
2019-02-04T11:27:09.977Z,19.61
2019-02-04T11:32:13.814Z,19.61
2019-02-04T11:37:17.687Z,19.60
2019-02-04T11:42:21.892Z,19.65
2019-02-04T11:47:25.767Z,19.64
2019-02-04T11:52:29.594Z,19.66
2019-02-04T11:57:33.536Z,19.66
2019-02-04T12:02:37.338Z,19.73
2019-02-04T12:07:41.137Z,19.72
2019-02-04T12:12:45.068Z,19.65
2019-02-04T12:17:48.880Z,19.65
2019-02-04T12:22:52.725Z,19.64
2019-02-04T12:27:56.576Z,19.62
2019-02-04T12:33:00.498Z,19.65
2019-02-04T12:38:04.303Z,19.65
2019-02-04T12:43:08.608Z,19.68
2019-02-04T12:48:12.376Z,19.67
2019-02-04T12:53:16.168Z,19.67
2019-02-04T12:58:19.969Z,19.67
2019-02-04T13:03:23.941Z,19.73
2019-02-04T13:08:27.727Z,19.76
2019-02-04T13:13:31.514Z,19.77
2019-02-04T13:18:35.306Z,19.77
2019-02-04T13:23:39.131Z,19.79
2019-02-04T13:28:42.981Z,19.79
2019-02-04T13:33:46.781Z,19.83
2019-02-04T13:38:50.595Z,19.87
2019-02-04T13:43:54.769Z,19.94
2019-02-04T13:48:58.560Z,19.96
2019-02-04T13:54:02.348Z,20.43
2019-02-04T13:59:06.148Z,20.43
2019-02-04T14:04:09.964Z,20.88
2019-02-04T14:09:17.783Z,21.15
2019-02-04T14:14:21.575Z,21.09
2019-02-04T14:19:25.747Z,20.90
2019-02-04T14:24:29.535Z,21.04
2019-02-04T14:29:33.812Z,21.04
2019-02-04T14:34:37.815Z,19.22
2019-02-04T14:39:41.604Z,19.67
2019-02-04T14:44:50.642Z,20.20
2019-02-04T14:50:38.743Z,20.23
2019-02-04T14:56:30.315Z,20.34
2019-02-04T15:02:10.558Z,20.34
2019-02-04T15:07:52.441Z,20.78
2019-02-04T15:13:13.892Z,20.77
2019-02-04T15:18:57.287Z,20.68
2019-02-04T15:24:10.582Z,20.56
2019-02-04T15:29:46.820Z,20.47
2019-02-04T15:41:07.922Z,20.42
2019-02-04T15:46:36.808Z,20.36
2019-02-04T15:51:46.055Z,20.32
2019-02-04T15:56:49.855Z,20.32
2019-02-04T16:01:53.674Z,20.39
2019-02-04T16:06:57.531Z,20.39
2019-02-04T16:12:01.330Z,20.74
2019-02-04T16:17:08.172Z,20.69
2019-02-04T16:22:12.142Z,20.63
2019-02-04T16:27:15.953Z,20.54
2019-02-04T16:32:20.001Z,20.56
2019-02-04T16:37:23.814Z,20.47
2019-02-04T16:42:27.652Z,20.39
2019-02-04T16:47:31.718Z,20.34
2019-02-04T16:52:35.548Z,20.35
2019-02-04T16:57:39.341Z,20.36
2019-02-04T17:02:43.808Z,20.36
2019-02-04T17:07:47.744Z,20.43
2019-02-04T17:12:51.618Z,20.95
2019-02-04T17:17:55.546Z,21.17
2019-02-04T17:22:59.428Z,21.56
2019-02-04T17:28:03.230Z,21.56
2019-02-04T17:33:07.196Z,21.72
2019-02-04T17:38:11.676Z,21.72
2019-02-04T17:43:15.775Z,21.73
2019-02-04T17:48:19.573Z,21.64
2019-02-04T17:53:33.957Z,21.64
2019-02-04T17:58:29.637Z,21.68
2019-02-04T18:03:33.968Z,21.75
2019-02-04T18:08:38.101Z,21.80
2019-02-04T18:13:42.952Z,21.85
2019-02-04T18:18:47.197Z,21.94
2019-02-04T18:23:51.191Z,21.83
2019-02-04T18:28:56.018Z,21.83
2019-02-04T18:34:00.672Z,21.84
2019-02-04T18:39:08.611Z,21.74
2019-02-04T18:44:15.298Z,21.85
2019-02-04T18:49:21.513Z,21.93
2019-02-04T18:54:27.081Z,21.95
2019-02-04T18:59:32.489Z,21.87
2019-02-04T19:04:37.601Z,21.87
2019-02-04T19:09:43.046Z,21.76
2019-02-04T19:14:48.582Z,21.76
2019-02-04T19:19:53.896Z,21.80
2019-02-04T19:24:58.776Z,21.85
2019-02-04T19:30:05.872Z,21.85
2019-02-04T19:35:12.342Z,21.91
2019-02-04T19:40:18.834Z,21.86
2019-02-04T19:45:24.681Z,21.83
2019-02-04T19:50:32.621Z,21.67
2019-02-04T19:55:38.265Z,21.69
2019-02-04T20:00:45.429Z,21.67
2019-02-04T20:05:51.750Z,21.68
2019-02-04T20:10:57.978Z,21.63
2019-02-04T20:16:04.180Z,21.63
2019-02-04T20:21:10.709Z,21.53
2019-02-04T20:26:17.399Z,21.43
2019-02-04T20:31:24.691Z,21.41
2019-02-04T20:36:31.699Z,21.39
2019-02-04T20:41:37.966Z,21.39
2019-02-04T20:46:44.339Z,21.18
2019-02-04T20:51:50.521Z,21.07
2019-02-04T20:56:56.954Z,20.99
2019-02-04T21:02:02.432Z,20.98
2019-02-04T21:07:08.344Z,20.98
2019-02-04T21:12:13.488Z,20.87
2019-02-04T21:17:18.624Z,21.04
2019-02-04T21:22:24.388Z,21.04
2019-02-04T21:27:28.538Z,21.15
2019-02-04T21:32:33.125Z,21.04
2019-02-04T21:37:37.308Z,21.14
2019-02-04T21:42:41.334Z,21.14
2019-02-04T21:47:45.190Z,21.09
2019-02-04T21:52:48.970Z,21.09
2019-02-04T21:57:52.989Z,21.10
2019-02-04T22:02:56.808Z,21.07
2019-02-04T22:08:00.705Z,21.05
2019-02-04T22:13:04.497Z,21.09
2019-02-04T22:18:08.795Z,21.05
2019-02-04T22:23:13.048Z,21.01
2019-02-04T22:28:17.340Z,21.01
2019-02-04T22:33:21.463Z,21.01
2019-02-04T22:38:25.641Z,20.97
2019-02-04T22:43:29.461Z,21.02
2019-02-04T22:48:33.269Z,20.98
2019-02-04T22:53:37.098Z,20.99
2019-02-04T22:58:40.937Z,20.99
2019-02-04T23:03:44.754Z,20.95
2019-02-04T23:08:48.559Z,20.96
2019-02-04T23:13:52.754Z,20.96
2019-02-04T23:18:56.545Z,20.90
2019-02-04T23:24:00.369Z,20.88
2019-02-04T23:29:04.380Z,20.86
2019-02-04T23:34:08.175Z,20.89
2019-02-04T23:39:12.000Z,20.89
2019-02-04T23:44:15.781Z,20.84
2019-02-04T23:49:19.565Z,20.80
2019-02-04T23:54:23.366Z,20.76
2019-02-04T23:59:27.167Z,20.75
